createdAt,value
2023-01-31T00:00:24.493Z,99.99
2023-01-31T00:01:24.910Z,99.99
2023-01-31T00:02:25.257Z,99.99
2023-01-31T00:03:25.703Z,99.99
2023-01-31T00:04:25.926Z,99.99
2023-01-31T00:05:26.258Z,99.99
2023-01-31T00:06:26.615Z,99.99
2023-01-31T00:07:27.870Z,99.99
2023-01-31T00:08:27.302Z,99.99
2023-01-31T00:09:27.683Z,99.99
2023-01-31T00:10:28.023Z,99.99
2023-01-31T00:11:28.416Z,99.99
2023-01-31T00:12:28.753Z,99.99
2023-01-31T00:13:29.168Z,99.99
2023-01-31T00:14:29.443Z,99.76
2023-01-31T00:15:29.832Z,99.86
2023-01-31T00:16:30.119Z,99.65
2023-01-31T00:17:30.466Z,98.99
2023-01-31T00:18:30.877Z,98.99
2023-01-31T00:19:31.143Z,98.99
2023-01-31T00:20:31.536Z,99.34
2023-01-31T00:21:31.855Z,99.09
2023-01-31T00:22:32.202Z,98.47
2023-01-31T00:23:32.645Z,98.05
2023-01-31T00:24:33.034Z,98.16
2023-01-31T00:25:33.271Z,98.05
2023-01-31T00:26:33.604Z,98.36
2023-01-31T00:27:33.921Z,98.16
2023-01-31T00:28:34.782Z,97.95
2023-01-31T00:29:34.793Z,97.17
2023-01-31T00:30:35.029Z,97.07
2023-01-31T00:31:36.098Z,97.07
2023-01-31T00:32:35.871Z,97.53
2023-01-31T00:33:36.634Z,97.95
2023-01-31T00:34:37.005Z,98.16
2023-01-31T00:35:37.198Z,98.41
2023-01-31T00:36:37.990Z,98.41
2023-01-31T00:37:37.592Z,98.16
2023-01-31T00:38:38.439Z,98.10
2023-01-31T00:39:38.855Z,97.33
2023-01-31T00:40:38.648Z,96.81
2023-01-31T00:41:39.344Z,96.70
2023-01-31T00:42:39.354Z,97.02
2023-01-31T00:43:39.695Z,97.02
2023-01-31T00:44:39.952Z,97.47
2023-01-31T00:45:40.355Z,97.12
2023-01-31T00:46:40.711Z,97.16
2023-01-31T00:47:41.028Z,97.58
2023-01-31T00:48:41.417Z,97.47
2023-01-31T00:49:41.731Z,96.95
2023-01-31T00:50:42.237Z,97.16
2023-01-31T00:51:42.428Z,97.16
2023-01-31T00:52:42.876Z,96.19
2023-01-31T00:53:43.159Z,95.87
2023-01-31T00:54:43.509Z,95.10
2023-01-31T00:55:43.881Z,95.46
2023-01-31T00:56:44.251Z,95.36
2023-01-31T00:57:44.608Z,95.25
2023-01-31T00:58:45.044Z,95.77
2023-01-31T00:59:45.254Z,95.98
2023-01-31T01:00:45.673Z,95.56
2023-01-31T01:01:46.040Z,95.46
2023-01-31T01:02:46.360Z,95.77
2023-01-31T01:03:46.787Z,95.36
2023-01-31T01:04:47.028Z,95.46
2023-01-31T01:05:47.376Z,95.67
2023-01-31T01:06:47.787Z,95.67
2023-01-31T01:07:48.045Z,94.94
2023-01-31T01:08:48.420Z,94.79
2023-01-31T01:09:48.810Z,95.15
2023-01-31T01:10:49.090Z,95.36
2023-01-31T01:11:49.432Z,95.46
2023-01-31T01:12:49.769Z,95.15
2023-01-31T01:13:50.133Z,94.68
2023-01-31T01:14:50.577Z,94.17
2023-01-31T01:15:50.894Z,94.27
2023-01-31T01:16:51.231Z,94.79
2023-01-31T01:17:51.581Z,94.68
2023-01-31T01:18:51.915Z,94.58
2023-01-31T01:19:52.250Z,94.79
2023-01-31T01:20:52.632Z,94.79
2023-01-31T01:21:53.920Z,94.33
2023-01-31T01:22:53.304Z,94.33
2023-01-31T01:23:53.731Z,94.33
2023-01-31T01:24:54.040Z,93.40
2023-01-31T01:25:54.335Z,94.02
2023-01-31T01:26:54.835Z,94.23
2023-01-31T01:27:55.041Z,94.02
2023-01-31T01:28:55.415Z,93.60
2023-01-31T01:29:55.800Z,93.71
2023-01-31T01:30:56.132Z,94.02
2023-01-31T01:31:56.567Z,93.91
2023-01-31T01:32:56.806Z,93.81
2023-01-31T01:33:57.529Z,93.91
2023-01-31T01:34:57.546Z,93.81
2023-01-31T01:35:57.892Z,93.19
2023-01-31T01:36:58.228Z,93.40
2023-01-31T01:37:58.613Z,92.98
2023-01-31T01:38:59.136Z,93.19
2023-01-31T01:39:59.236Z,93.19
2023-01-31T01:40:59.603Z,93.40
2023-01-31T01:42:00.019Z,93.91
2023-01-31T01:43:00.294Z,94.02
2023-01-31T01:44:00.671Z,94.12
2023-01-31T01:45:01.053Z,94.02
2023-01-31T01:46:01.489Z,94.23
2023-01-31T01:47:01.758Z,94.33
2023-01-31T01:48:02.077Z,94.43
2023-01-31T01:49:02.465Z,94.74
2023-01-31T01:50:02.774Z,94.64
2023-01-31T01:51:03.135Z,95.16
2023-01-31T01:52:03.498Z,95.37
2023-01-31T01:53:03.899Z,95.78
2023-01-31T01:54:04.195Z,95.99
2023-01-31T01:55:04.555Z,96.66
2023-01-31T01:56:04.968Z,96.55
2023-01-31T01:57:05.255Z,96.34
2023-01-31T01:58:05.799Z,96.24
2023-01-31T01:59:06.001Z,96.76
2023-01-31T02:00:06.359Z,97.07
2023-01-31T02:01:06.721Z,96.76
2023-01-31T02:02:07.091Z,96.76
2023-01-31T02:03:07.342Z,96.76
2023-01-31T02:04:07.824Z,97.17
2023-01-31T02:05:08.024Z,96.86
2023-01-31T02:06:08.403Z,96.97
2023-01-31T02:07:09.371Z,97.28
2023-01-31T02:08:09.078Z,97.74
2023-01-31T02:09:09.459Z,98.05
2023-01-31T02:10:09.797Z,97.95
2023-01-31T02:11:10.113Z,98.05
2023-01-31T02:12:10.455Z,97.90
2023-01-31T02:13:10.846Z,97.59
2023-01-31T02:14:11.585Z,97.80
2023-01-31T02:15:11.600Z,97.80
2023-01-31T02:16:11.907Z,97.90
2023-01-31T02:17:12.230Z,97.90
2023-01-31T02:18:14.548Z,98.26
2023-01-31T02:19:12.932Z,98.47
2023-01-31T02:20:13.262Z,98.36
2023-01-31T02:21:13.643Z,98.36
2023-01-31T02:22:13.962Z,98.47
2023-01-31T02:23:14.297Z,98.47
2023-01-31T02:24:14.700Z,98.78
2023-01-31T02:25:15.077Z,98.88
2023-01-31T02:26:15.365Z,99.09
2023-01-31T02:27:15.757Z,99.19
2023-01-31T02:28:16.056Z,99.40
2023-01-31T02:29:16.421Z,99.40
2023-01-31T02:30:16.751Z,99.51
2023-01-31T02:31:17.182Z,99.71
2023-01-31T02:32:17.510Z,99.92
2023-01-31T02:33:17.876Z,99.92
2023-01-31T02:34:18.220Z,99.92
2023-01-31T02:35:19.125Z,99.99
2023-01-31T02:36:19.054Z,99.99
2023-01-31T02:37:19.285Z,99.99
2023-01-31T02:38:19.663Z,99.99
2023-01-31T02:39:20.022Z,99.99
2023-01-31T02:40:20.358Z,99.99
2023-01-31T02:41:27.214Z,99.99
2023-01-31T02:42:21.452Z,99.99
2023-01-31T02:43:21.615Z,99.99
2023-01-31T02:44:21.794Z,99.99
2023-01-31T02:45:22.542Z,99.99
2023-01-31T02:46:22.535Z,99.99
2023-01-31T02:47:23.305Z,99.99
2023-01-31T02:48:23.306Z,99.99
2023-01-31T02:49:24.085Z,99.99
2023-01-31T02:50:24.141Z,99.99
2023-01-31T02:51:24.255Z,99.99
2023-01-31T02:52:24.627Z,99.99
2023-01-31T02:53:25.024Z,99.99
2023-01-31T02:54:25.353Z,99.99
2023-01-31T02:55:25.790Z,99.99
2023-01-31T02:56:26.022Z,99.99
2023-01-31T02:57:26.356Z,99.99
2023-01-31T02:58:26.655Z,99.99
2023-01-31T02:59:27.128Z,99.99
2023-01-31T03:00:27.354Z,99.99
2023-01-31T03:01:27.791Z,99.99
2023-01-31T03:02:28.148Z,99.99
2023-01-31T03:03:28.422Z,99.99
2023-01-31T03:04:28.820Z,99.99
2023-01-31T03:05:29.114Z,99.99
2023-01-31T03:06:29.447Z,99.99
2023-01-31T03:07:29.799Z,99.99
2023-01-31T03:08:30.135Z,99.99
2023-01-31T03:09:30.541Z,99.99
2023-01-31T03:10:30.848Z,99.99
2023-01-31T03:11:31.209Z,99.99
2023-01-31T03:12:31.543Z,99.99
2023-01-31T03:13:31.945Z,99.99
2023-01-31T03:14:32.876Z,99.99
2023-01-31T03:15:32.904Z,99.99
2023-01-31T03:16:33.069Z,99.99
2023-01-31T03:17:33.375Z,99.99
2023-01-31T03:18:33.720Z,99.99
2023-01-31T03:19:34.056Z,99.99
2023-01-31T03:20:34.394Z,99.99
2023-01-31T03:21:34.696Z,99.99
2023-01-31T03:22:35.102Z,99.99
2023-01-31T03:23:35.449Z,99.99
2023-01-31T03:24:36.335Z,99.99
2023-01-31T03:25:36.297Z,99.99
2023-01-31T03:26:36.824Z,99.99
2023-01-31T03:27:36.829Z,99.99
2023-01-31T03:28:37.226Z,99.99
2023-01-31T03:29:37.558Z,99.99
2023-01-31T03:30:38.037Z,99.99
2023-01-31T03:31:38.368Z,99.99
2023-01-31T03:32:38.628Z,99.99
2023-01-31T03:33:39.033Z,99.99
2023-01-31T03:34:39.328Z,99.99
2023-01-31T03:35:39.674Z,99.99
2023-01-31T03:36:40.021Z,99.99
2023-01-31T03:37:40.400Z,99.99
2023-01-31T03:38:40.708Z,99.99
2023-01-31T03:39:41.137Z,99.99
2023-01-31T03:40:41.398Z,99.99
2023-01-31T03:41:41.749Z,99.99
2023-01-31T03:42:42.152Z,99.99
2023-01-31T03:43:42.423Z,99.99
2023-01-31T03:44:42.847Z,99.99
2023-01-31T03:45:43.116Z,99.99
2023-01-31T03:46:43.521Z,99.99
2023-01-31T03:47:43.834Z,99.99
2023-01-31T03:48:44.202Z,99.99
2023-01-31T03:49:44.572Z,99.99
2023-01-31T03:50:44.932Z,99.99
2023-01-31T03:51:45.267Z,99.99
2023-01-31T03:52:45.631Z,99.99
2023-01-31T03:53:45.987Z,99.99
2023-01-31T03:54:46.386Z,99.99
2023-01-31T03:55:46.667Z,99.99
2023-01-31T03:56:47.038Z,99.99
2023-01-31T03:57:47.375Z,99.99
2023-01-31T03:58:47.751Z,99.99
2023-01-31T03:59:48.138Z,99.99
2023-01-31T04:00:48.451Z,99.99
2023-01-31T04:01:48.887Z,99.99
2023-01-31T04:02:49.193Z,99.99
2023-01-31T04:03:49.571Z,99.99
2023-01-31T04:04:49.835Z,99.99
2023-01-31T04:05:50.198Z,99.99
2023-01-31T04:06:50.547Z,99.99
2023-01-31T04:07:50.869Z,99.99
2023-01-31T04:08:51.366Z,99.99
2023-01-31T04:09:51.589Z,99.99
2023-01-31T04:10:51.960Z,99.99
2023-01-31T04:11:52.315Z,99.99
2023-01-31T04:12:52.721Z,99.99
2023-01-31T04:13:53.036Z,99.99
2023-01-31T04:14:53.410Z,99.99
2023-01-31T04:15:53.740Z,99.99
2023-01-31T04:16:54.071Z,99.99
2023-01-31T04:17:54.456Z,99.99
2023-01-31T04:18:54.773Z,99.99
2023-01-31T04:19:55.149Z,99.99
2023-01-31T04:20:55.489Z,99.99
2023-01-31T04:21:55.842Z,99.99
2023-01-31T04:22:56.305Z,99.99
2023-01-31T04:23:56.554Z,99.99
2023-01-31T04:24:56.987Z,99.99
2023-01-31T04:25:57.244Z,99.99
2023-01-31T04:26:57.591Z,99.99
2023-01-31T04:27:57.931Z,99.99
2023-01-31T04:28:58.289Z,99.99
2023-01-31T04:29:58.696Z,99.99
2023-01-31T04:30:59.083Z,99.99
2023-01-31T04:31:59.444Z,99.99
2023-01-31T04:32:59.672Z,99.99
2023-01-31T04:34:00.053Z,99.99
2023-01-31T04:35:02.315Z,99.99
2023-01-31T04:36:00.713Z,99.99
2023-01-31T04:37:01.091Z,99.99
2023-01-31T04:38:01.393Z,99.99
2023-01-31T04:39:01.843Z,99.99
2023-01-31T04:40:02.130Z,99.99
2023-01-31T04:41:02.440Z,99.99
2023-01-31T04:42:02.821Z,99.99
2023-01-31T04:43:03.135Z,99.99
2023-01-31T04:44:03.470Z,99.99
2023-01-31T04:45:03.823Z,99.99
2023-01-31T04:46:04.235Z,99.99
2023-01-31T04:47:04.628Z,99.99
2023-01-31T04:48:04.928Z,99.99
2023-01-31T04:49:05.250Z,99.99
2023-01-31T04:50:05.744Z,99.99
2023-01-31T04:51:14.630Z,99.99
2023-01-31T04:52:06.300Z,99.99
2023-01-31T04:53:07.155Z,99.99
2023-01-31T04:54:07.048Z,99.99
2023-01-31T04:55:08.432Z,99.99
2023-01-31T04:56:08.095Z,99.99
2023-01-31T04:57:09.081Z,99.99
2023-01-31T04:58:08.763Z,99.99
2023-01-31T04:59:08.875Z,99.99
2023-01-31T05:00:09.192Z,99.99
2023-01-31T05:01:09.522Z,99.99
2023-01-31T05:02:09.810Z,99.99
2023-01-31T05:03:10.158Z,99.99
2023-01-31T05:04:10.495Z,99.99
2023-01-31T05:05:10.912Z,99.99
2023-01-31T05:06:11.197Z,99.99
2023-01-31T05:07:11.529Z,99.99
2023-01-31T05:08:11.873Z,99.99
2023-01-31T05:09:12.277Z,99.99
2023-01-31T05:10:12.667Z,99.99
2023-01-31T05:11:12.973Z,99.99
2023-01-31T05:12:13.292Z,99.99
2023-01-31T05:13:13.653Z,99.99
2023-01-31T05:14:14.003Z,99.99
2023-01-31T05:15:14.409Z,99.99
2023-01-31T05:16:14.767Z,99.99
2023-01-31T05:17:15.057Z,99.99
2023-01-31T05:18:15.390Z,99.99
2023-01-31T05:19:16.021Z,99.99
2023-01-31T05:20:16.133Z,99.99
2023-01-31T05:21:16.433Z,99.99
2023-01-31T05:22:16.807Z,99.99
2023-01-31T05:23:17.137Z,99.99
2023-01-31T05:24:17.503Z,99.99
2023-01-31T05:25:17.862Z,99.99
2023-01-31T05:26:18.222Z,99.99
2023-01-31T05:27:18.548Z,99.99
2023-01-31T05:28:18.865Z,99.99
2023-01-31T05:29:19.254Z,99.99
2023-01-31T05:30:19.616Z,99.99
2023-01-31T05:31:20.048Z,99.99
2023-01-31T05:32:20.319Z,99.99
2023-01-31T05:33:20.699Z,99.99
2023-01-31T05:34:21.022Z,99.99
2023-01-31T05:35:21.789Z,99.99
2023-01-31T05:36:21.757Z,99.99
2023-01-31T05:37:22.109Z,99.99
2023-01-31T05:38:22.432Z,99.99
2023-01-31T05:39:22.794Z,99.99
2023-01-31T05:40:23.149Z,99.99
2023-01-31T05:41:23.481Z,99.99
2023-01-31T05:42:23.821Z,99.99
2023-01-31T05:43:24.162Z,99.99
2023-01-31T05:44:24.526Z,99.99
2023-01-31T05:45:24.901Z,99.99
2023-01-31T05:46:25.224Z,99.99
2023-01-31T05:47:25.630Z,99.93
2023-01-31T05:48:25.957Z,99.93
2023-01-31T05:49:26.542Z,99.99
2023-01-31T05:50:26.681Z,99.99
2023-01-31T05:51:27.027Z,99.99
2023-01-31T05:52:27.380Z,99.99
2023-01-31T05:53:27.745Z,99.99
2023-01-31T05:54:28.108Z,99.99
2023-01-31T05:55:28.487Z,99.99
2023-01-31T05:56:28.877Z,99.99
2023-01-31T05:57:29.178Z,99.99
2023-01-31T05:58:29.486Z,99.99
2023-01-31T05:59:29.826Z,99.99
2023-01-31T06:00:31.005Z,99.99
2023-01-31T06:01:30.932Z,99.99
2023-01-31T06:02:31.146Z,99.99
2023-01-31T06:03:31.330Z,99.99
2023-01-31T06:04:32.083Z,99.99
2023-01-31T06:05:32.077Z,99.99
2023-01-31T06:06:32.299Z,99.99
2023-01-31T06:07:33.196Z,99.99
2023-01-31T06:08:33.378Z,99.99
2023-01-31T06:09:33.348Z,99.99
2023-01-31T06:10:33.713Z,99.99
2023-01-31T06:11:34.129Z,99.99
2023-01-31T06:12:34.433Z,99.99
2023-01-31T06:13:34.804Z,99.99
2023-01-31T06:14:35.113Z,99.99
2023-01-31T06:15:35.483Z,99.99
2023-01-31T06:16:35.891Z,99.99
2023-01-31T06:17:36.513Z,99.99
2023-01-31T06:18:36.500Z,99.99
2023-01-31T06:19:36.859Z,99.99
2023-01-31T06:20:37.183Z,99.99
2023-01-31T06:21:37.569Z,99.99
2023-01-31T06:22:37.870Z,99.99
2023-01-31T06:23:38.283Z,99.99
2023-01-31T06:24:38.550Z,99.99
2023-01-31T06:25:39.013Z,99.99
2023-01-31T06:26:39.280Z,99.99
2023-01-31T06:27:39.668Z,99.99
2023-01-31T06:28:40.077Z,99.99
2023-01-31T06:29:40.351Z,99.99
2023-01-31T06:30:40.813Z,99.99
2023-01-31T06:31:41.181Z,99.99
2023-01-31T06:32:41.388Z,99.99
2023-01-31T06:33:47.245Z,99.99
2023-01-31T06:34:42.130Z,99.99
2023-01-31T06:35:42.513Z,99.99
2023-01-31T06:36:42.824Z,99.99
2023-01-31T06:37:43.159Z,99.99
2023-01-31T06:38:43.511Z,99.99
2023-01-31T06:39:43.849Z,99.99
2023-01-31T06:40:44.289Z,99.99
2023-01-31T06:41:44.575Z,99.99
2023-01-31T06:42:44.906Z,99.99
2023-01-31T06:43:45.290Z,99.99
2023-01-31T06:44:45.629Z,99.99
2023-01-31T06:45:46.053Z,99.99
2023-01-31T06:46:46.388Z,99.99
2023-01-31T06:47:46.762Z,99.99
2023-01-31T06:48:47.041Z,99.99
2023-01-31T06:49:47.425Z,99.99
2023-01-31T06:50:48.137Z,99.99
2023-01-31T06:51:48.162Z,99.99
2023-01-31T06:52:48.480Z,99.99
2023-01-31T06:53:48.865Z,99.99
2023-01-31T06:54:49.317Z,99.99
2023-01-31T06:55:49.595Z,99.99
2023-01-31T06:56:49.994Z,99.87
2023-01-31T06:57:50.326Z,99.98
2023-01-31T06:58:50.666Z,99.99
2023-01-31T06:59:50.876Z,99.98
2023-01-31T07:00:51.216Z,99.99
2023-01-31T07:01:51.482Z,99.98
2023-01-31T07:02:51.745Z,99.87
2023-01-31T07:03:52.056Z,99.98
2023-01-31T07:04:52.229Z,99.82
2023-01-31T07:05:52.914Z,99.99
2023-01-31T07:06:52.934Z,99.99
2023-01-31T07:07:53.163Z,99.99
2023-01-31T07:08:53.431Z,99.99
2023-01-31T07:09:53.728Z,99.99
2023-01-31T07:10:53.904Z,99.99
2023-01-31T07:11:54.200Z,99.99
2023-01-31T07:12:54.500Z,99.93
2023-01-31T07:13:54.802Z,99.93
2023-01-31T07:14:55.066Z,99.93
2023-01-31T07:15:55.373Z,99.99
2023-01-31T07:16:55.619Z,99.99
2023-01-31T07:17:56.259Z,99.99
2023-01-31T07:18:56.421Z,99.99
2023-01-31T07:19:56.363Z,99.99
2023-01-31T07:20:56.657Z,99.99
2023-01-31T07:21:57.012Z,99.99
2023-01-31T07:22:57.237Z,99.99
2023-01-31T07:23:57.533Z,99.99
2023-01-31T07:24:57.676Z,99.99
2023-01-31T07:25:58.022Z,99.99
2023-01-31T07:26:58.146Z,99.99
2023-01-31T07:27:58.434Z,99.99
2023-01-31T07:28:58.730Z,99.99
2023-01-31T07:29:59.035Z,99.99
2023-01-31T07:30:59.327Z,99.99
2023-01-31T07:31:59.604Z,99.99
2023-01-31T07:32:59.871Z,99.99
2023-01-31T07:34:00.015Z,99.99
2023-01-31T07:35:00.427Z,99.99
2023-01-31T07:36:00.645Z,99.99
2023-01-31T07:37:00.949Z,99.99
2023-01-31T07:38:01.213Z,99.99
2023-01-31T07:39:01.342Z,99.99
2023-01-31T07:40:01.653Z,99.99
2023-01-31T07:41:01.871Z,99.99
2023-01-31T07:42:01.996Z,99.99
2023-01-31T07:43:02.178Z,99.99
2023-01-31T07:44:02.486Z,99.99
2023-01-31T07:45:13.212Z,99.99
2023-01-31T07:46:02.855Z,99.99
2023-01-31T07:47:03.100Z,99.99
2023-01-31T07:48:03.346Z,99.99
2023-01-31T07:49:03.521Z,99.99
2023-01-31T07:50:03.826Z,99.99
2023-01-31T07:51:04.123Z,99.99
2023-01-31T07:52:04.406Z,99.99
2023-01-31T07:53:04.496Z,99.99
2023-01-31T07:54:04.769Z,99.99
2023-01-31T07:55:05.033Z,99.99
2023-01-31T07:56:05.223Z,99.99
2023-01-31T07:57:05.402Z,99.99
2023-01-31T07:58:05.555Z,99.99
2023-01-31T07:59:05.704Z,99.99
2023-01-31T08:00:05.914Z,99.99
2023-01-31T08:01:06.328Z,99.99
2023-01-31T08:02:06.486Z,99.99
2023-01-31T08:03:06.630Z,99.99
2023-01-31T08:04:19.928Z,99.99
2023-01-31T08:05:07.173Z,99.84
2023-01-31T08:06:07.387Z,99.94
2023-01-31T08:07:07.560Z,99.94
2023-01-31T08:08:07.826Z,99.94
2023-01-31T08:09:08.034Z,99.99
2023-01-31T08:10:08.302Z,99.99
2023-01-31T08:11:08.537Z,99.84
2023-01-31T08:12:08.766Z,99.73
2023-01-31T08:13:08.931Z,99.84
2023-01-31T08:14:09.188Z,99.63
2023-01-31T08:15:09.381Z,99.63
2023-01-31T08:16:09.604Z,99.73
2023-01-31T08:17:09.831Z,99.84
2023-01-31T08:18:10.019Z,99.84
2023-01-31T08:19:10.173Z,99.99
2023-01-31T08:20:10.379Z,99.99
2023-01-31T08:21:10.646Z,99.84
2023-01-31T08:22:10.821Z,99.69
2023-01-31T08:23:10.977Z,99.58
2023-01-31T08:24:11.350Z,99.27
2023-01-31T08:25:11.541Z,99.27
2023-01-31T08:26:11.727Z,99.27
2023-01-31T08:27:11.875Z,98.75
2023-01-31T08:28:12.203Z,98.44
2023-01-31T08:29:12.493Z,98.30
2023-01-31T08:30:12.814Z,98.44
2023-01-31T08:31:13.168Z,98.30
2023-01-31T08:32:13.207Z,98.30
2023-01-31T08:33:13.379Z,98.09
2023-01-31T08:34:13.566Z,98.09
2023-01-31T08:35:13.765Z,98.19
2023-01-31T08:36:13.940Z,98.30
2023-01-31T08:37:15.774Z,98.19
2023-01-31T08:38:16.788Z,98.40
2023-01-31T08:39:14.624Z,98.50
2023-01-31T08:40:14.804Z,98.50
2023-01-31T08:41:14.986Z,98.50
2023-01-31T08:42:21.287Z,98.40
2023-01-31T08:43:15.534Z,98.50
2023-01-31T08:44:15.843Z,98.50
2023-01-31T08:45:16.135Z,98.30
2023-01-31T08:46:16.604Z,98.09
2023-01-31T08:47:16.731Z,98.19
2023-01-31T08:48:16.923Z,98.19
2023-01-31T08:49:17.101Z,98.40
2023-01-31T08:50:27.225Z,98.50
2023-01-31T08:51:17.588Z,98.61
2023-01-31T08:52:17.690Z,98.71
2023-01-31T08:53:17.995Z,98.82
2023-01-31T08:54:18.150Z,98.71
2023-01-31T08:55:18.624Z,98.71
2023-01-31T08:56:18.509Z,98.82
2023-01-31T08:57:18.639Z,99.13
2023-01-31T08:58:18.805Z,99.23
2023-01-31T08:59:18.986Z,99.33
2023-01-31T09:00:19.153Z,99.74
2023-01-31T09:01:19.428Z,99.99
2023-01-31T09:02:19.585Z,99.99
2023-01-31T09:03:19.786Z,99.99
2023-01-31T09:04:19.971Z,99.99
2023-01-31T09:05:20.540Z,99.99
2023-01-31T09:06:20.288Z,99.99
2023-01-31T09:07:20.446Z,99.99
2023-01-31T09:08:20.754Z,99.99
2023-01-31T09:09:20.912Z,99.99
2023-01-31T09:10:21.625Z,99.99
2023-01-31T09:11:21.432Z,99.99
2023-01-31T09:12:21.703Z,99.99
2023-01-31T09:13:21.849Z,99.99
2023-01-31T09:14:22.005Z,99.99
2023-01-31T09:15:22.553Z,99.99
2023-01-31T09:16:22.464Z,99.99
2023-01-31T09:17:22.655Z,99.99
2023-01-31T09:18:22.875Z,99.99
2023-01-31T09:19:23.109Z,99.99
2023-01-31T09:20:23.381Z,99.99
2023-01-31T09:21:23.453Z,99.99
2023-01-31T09:22:23.641Z,99.99
2023-01-31T09:23:23.793Z,99.99
2023-01-31T09:24:24.080Z,99.99
2023-01-31T09:25:41.345Z,99.99
2023-01-31T09:26:24.579Z,99.99
2023-01-31T09:27:24.823Z,99.99
2023-01-31T09:28:24.988Z,99.99
2023-01-31T09:29:25.308Z,99.99
2023-01-31T09:30:25.509Z,99.99
2023-01-31T09:31:25.676Z,99.99
2023-01-31T09:32:25.839Z,99.99
2023-01-31T09:33:26.092Z,99.99
2023-01-31T09:34:26.387Z,99.99
2023-01-31T09:35:26.668Z,99.99
2023-01-31T09:36:26.834Z,99.99
2023-01-31T09:37:26.992Z,99.99
2023-01-31T09:38:27.159Z,99.99
2023-01-31T09:39:27.341Z,99.99
2023-01-31T09:40:27.503Z,99.99
2023-01-31T09:41:27.708Z,99.99
2023-01-31T09:42:28.343Z,99.99
2023-01-31T09:43:28.515Z,99.99
2023-01-31T09:44:28.400Z,99.99
2023-01-31T09:45:28.509Z,99.99
2023-01-31T09:46:28.801Z,99.99
2023-01-31T09:47:28.932Z,99.99
2023-01-31T09:48:29.514Z,99.99
2023-01-31T09:49:29.755Z,99.99
2023-01-31T09:50:29.607Z,99.99
2023-01-31T09:51:29.660Z,99.99
2023-01-31T09:52:29.835Z,99.99
2023-01-31T09:53:30.376Z,99.99
2023-01-31T09:54:30.755Z,99.99
2023-01-31T09:55:30.774Z,99.99
2023-01-31T09:56:30.748Z,99.99
2023-01-31T09:57:30.859Z,99.99
2023-01-31T09:58:31.021Z,99.99
2023-01-31T09:59:31.188Z,99.99
2023-01-31T10:00:31.673Z,99.99
2023-01-31T10:01:31.864Z,99.99
2023-01-31T10:02:31.952Z,99.99
2023-01-31T10:03:32.085Z,99.99
2023-01-31T10:04:32.143Z,99.99
2023-01-31T10:05:32.765Z,99.99
2023-01-31T10:06:33.318Z,99.99
2023-01-31T10:07:32.948Z,99.99
2023-01-31T10:08:33.156Z,99.99
2023-01-31T10:09:33.116Z,99.99
2023-01-31T10:10:33.438Z,99.99
2023-01-31T10:11:34.154Z,99.99
2023-01-31T10:12:33.732Z,99.99
2023-01-31T10:13:34.001Z,99.99
2023-01-31T10:14:34.185Z,99.99
2023-01-31T10:15:34.479Z,99.99
2023-01-31T10:16:34.655Z,99.99
2023-01-31T10:17:34.859Z,99.99
2023-01-31T10:18:35.115Z,99.99
2023-01-31T10:19:35.441Z,99.99
2023-01-31T10:20:35.747Z,99.99
2023-01-31T10:21:35.895Z,99.99
2023-01-31T10:22:36.185Z,99.99
2023-01-31T10:23:36.352Z,99.99
2023-01-31T10:24:36.741Z,99.99
2023-01-31T10:25:36.907Z,99.99
2023-01-31T10:26:37.017Z,99.99
2023-01-31T10:27:37.148Z,99.99
2023-01-31T10:28:37.325Z,99.99
2023-01-31T10:29:37.514Z,99.99
2023-01-31T10:30:37.710Z,99.99
2023-01-31T10:31:38.003Z,99.99
2023-01-31T10:32:38.209Z,99.99
2023-01-31T10:33:38.409Z,99.99
2023-01-31T10:34:38.582Z,99.99
2023-01-31T10:35:38.843Z,99.99
2023-01-31T10:36:38.994Z,99.99
2023-01-31T10:37:39.180Z,99.99
2023-01-31T10:38:39.472Z,99.99
2023-01-31T10:39:39.751Z,99.99
2023-01-31T10:40:40.089Z,99.99
2023-01-31T10:41:40.397Z,99.99
2023-01-31T10:42:40.524Z,99.99
2023-01-31T10:43:41.037Z,99.99
2023-01-31T10:44:40.863Z,99.99
2023-01-31T10:45:41.058Z,99.99
2023-01-31T10:46:41.209Z,99.99
2023-01-31T10:47:41.347Z,99.99
2023-01-31T10:48:41.539Z,99.99
2023-01-31T10:49:41.832Z,99.99
2023-01-31T10:50:41.980Z,99.99
2023-01-31T10:51:42.294Z,99.99
2023-01-31T10:52:42.463Z,99.99
2023-01-31T10:53:42.661Z,99.99
2023-01-31T10:54:42.794Z,99.99
2023-01-31T10:55:42.939Z,99.99
2023-01-31T10:56:43.144Z,99.99
2023-01-31T10:57:43.293Z,99.99
2023-01-31T10:58:43.570Z,99.99
2023-01-31T10:59:43.960Z,99.99
2023-01-31T11:00:44.066Z,99.99
2023-01-31T11:01:44.236Z,99.99
2023-01-31T11:02:44.476Z,99.99
2023-01-31T11:03:44.651Z,99.99
2023-01-31T11:04:44.816Z,99.99
2023-01-31T11:05:45.100Z,99.99
2023-01-31T11:06:45.425Z,99.99
2023-01-31T11:07:45.565Z,99.99
2023-01-31T11:08:45.760Z,99.99
2023-01-31T11:09:46.023Z,99.99
2023-01-31T11:10:46.315Z,99.99
2023-01-31T11:11:46.514Z,99.99
2023-01-31T11:12:46.653Z,99.99
2023-01-31T11:13:46.947Z,99.99
2023-01-31T11:14:47.240Z,99.99
2023-01-31T11:15:47.420Z,99.99
2023-01-31T11:16:47.631Z,99.99
2023-01-31T11:17:47.894Z,99.99
2023-01-31T11:18:48.055Z,99.99
2023-01-31T11:19:48.222Z,99.99
2023-01-31T11:20:48.503Z,99.99
2023-01-31T11:21:48.682Z,99.99
2023-01-31T11:22:48.842Z,99.99
2023-01-31T11:23:49.008Z,99.99
2023-01-31T11:24:49.319Z,99.99
2023-01-31T11:25:49.608Z,99.99
2023-01-31T11:26:49.822Z,99.99
2023-01-31T11:27:49.964Z,99.99
2023-01-31T11:28:50.113Z,99.99
2023-01-31T11:29:50.293Z,99.99
2023-01-31T11:30:50.613Z,99.99
2023-01-31T11:31:50.885Z,99.99
2023-01-31T11:32:51.059Z,99.99
2023-01-31T11:33:51.229Z,99.99
2023-01-31T11:34:51.504Z,99.99
2023-01-31T11:35:51.866Z,99.99
2023-01-31T11:36:52.111Z,99.99
2023-01-31T11:37:54.437Z,99.99
2023-01-31T11:38:52.615Z,99.99
2023-01-31T11:39:52.851Z,99.99
2023-01-31T11:40:53.012Z,99.99
2023-01-31T11:41:53.193Z,99.99
2023-01-31T11:42:53.344Z,99.99
2023-01-31T11:43:53.529Z,99.99
2023-01-31T11:44:53.732Z,99.99
2023-01-31T11:45:53.998Z,99.99
2023-01-31T11:46:54.179Z,99.99
2023-01-31T11:47:54.321Z,99.99
2023-01-31T11:48:54.484Z,99.99
2023-01-31T11:49:54.669Z,99.99
2023-01-31T11:50:54.829Z,99.99
2023-01-31T11:51:55.035Z,99.99
2023-01-31T11:52:55.167Z,99.99
2023-01-31T11:53:55.461Z,99.99
2023-01-31T11:54:55.828Z,99.99
2023-01-31T11:55:56.068Z,99.99
2023-01-31T11:56:56.242Z,99.99
2023-01-31T11:57:56.405Z,99.99
2023-01-31T11:58:56.592Z,99.99
2023-01-31T11:59:56.742Z,99.99
2023-01-31T12:00:56.911Z,99.99
2023-01-31T12:01:57.287Z,99.99
2023-01-31T12:02:57.242Z,99.99
2023-01-31T12:04:03.133Z,99.99
2023-01-31T12:04:57.701Z,99.99
2023-01-31T12:05:57.871Z,99.99
2023-01-31T12:06:58.190Z,99.99
2023-01-31T12:07:58.333Z,99.99
2023-01-31T12:08:58.499Z,99.99
2023-01-31T12:09:58.790Z,99.99
2023-01-31T12:10:59.217Z,99.99
2023-01-31T12:11:59.404Z,99.99
2023-01-31T12:13:16.430Z,99.99
2023-01-31T12:13:59.742Z,99.99
2023-01-31T12:14:59.908Z,99.99
2023-01-31T12:16:00.094Z,99.99
2023-01-31T12:17:00.464Z,99.99
2023-01-31T12:18:00.567Z,99.99
2023-01-31T12:19:00.786Z,99.99
2023-01-31T12:20:01.048Z,99.99
2023-01-31T12:21:01.185Z,99.99
2023-01-31T12:22:01.335Z,99.99
2023-01-31T12:23:01.506Z,99.99
2023-01-31T12:24:01.664Z,99.99
2023-01-31T12:25:01.881Z,99.99
2023-01-31T12:26:02.121Z,99.99
2023-01-31T12:27:02.299Z,99.99
2023-01-31T12:28:02.468Z,99.99
2023-01-31T12:29:02.631Z,99.99
2023-01-31T12:30:02.784Z,99.99
2023-01-31T12:31:03.070Z,99.99
2023-01-31T12:32:03.243Z,99.99
2023-01-31T12:33:03.526Z,99.99
2023-01-31T12:34:03.812Z,99.99
2023-01-31T12:35:08.753Z,99.99
2023-01-31T12:36:04.181Z,99.99
2023-01-31T12:37:04.505Z,99.99
2023-01-31T12:38:04.623Z,99.99
2023-01-31T12:39:04.791Z,99.99
2023-01-31T12:40:22.797Z,99.99
2023-01-31T12:41:05.355Z,99.99
2023-01-31T12:42:05.700Z,99.99
2023-01-31T12:43:05.831Z,99.99
2023-01-31T12:44:06.125Z,99.99
2023-01-31T12:45:06.309Z,99.99
2023-01-31T12:46:06.496Z,99.99
2023-01-31T12:47:11.399Z,99.99
2023-01-31T12:48:06.841Z,99.99
2023-01-31T12:49:07.005Z,99.99
2023-01-31T12:50:07.157Z,99.99
2023-01-31T12:51:07.329Z,99.99
2023-01-31T12:52:07.513Z,99.99
2023-01-31T12:53:07.823Z,99.99
2023-01-31T12:54:07.985Z,99.99
2023-01-31T12:55:08.281Z,99.99
2023-01-31T12:56:08.430Z,99.99